createdAt,value
2023-01-03T00:00:15.847Z,1.93
2023-01-03T00:02:44.715Z,1.57
2023-01-03T00:05:12.212Z,1.80
2023-01-03T00:07:39.677Z,1.63
2023-01-03T00:10:08.849Z,1.90
2023-01-03T00:12:36.454Z,1.73
2023-01-03T00:15:04.400Z,1.73
2023-01-03T00:17:31.878Z,1.87
2023-01-03T00:20:00.730Z,1.50
2023-01-03T00:22:31.683Z,1.63
2023-01-03T00:24:59.160Z,1.37
2023-01-03T00:27:26.613Z,1.37
2023-01-03T00:29:54.014Z,1.40
2023-01-03T00:32:21.440Z,1.23
2023-01-03T00:34:48.901Z,1.23
2023-01-03T00:37:17.748Z,1.30
2023-01-03T00:39:45.195Z,1.20
2023-01-03T00:42:12.680Z,1.20
2023-01-03T00:44:40.145Z,1.00
2023-01-03T00:47:07.724Z,1.20
2023-01-03T00:49:35.179Z,1.10
2023-01-03T00:52:03.045Z,0.90
2023-01-03T00:54:31.902Z,0.97
2023-01-03T00:56:59.369Z,1.10
2023-01-03T00:59:26.974Z,1.00
2023-01-03T01:01:55.133Z,1.00
2023-01-03T01:04:23.746Z,1.00
2023-01-03T01:06:52.377Z,1.00
2023-01-03T01:09:21.380Z,0.83
2023-01-03T01:11:50.193Z,0.80
2023-01-03T01:14:21.343Z,0.80
2023-01-03T01:16:49.336Z,0.87
2023-01-03T01:19:17.053Z,0.80
2023-01-03T01:21:44.950Z,0.70
2023-01-03T01:24:17.702Z,0.80
2023-01-03T01:26:45.921Z,0.80
2023-01-03T01:29:15.731Z,0.70
2023-01-03T01:31:43.570Z,0.80
2023-01-03T01:34:12.147Z,0.60
2023-01-03T01:36:41.948Z,0.70
2023-01-03T01:39:12.799Z,0.77
2023-01-03T01:41:58.419Z,0.80
2023-01-03T01:44:44.546Z,0.80
2023-01-03T01:47:14.144Z,0.90
2023-01-03T01:49:42.467Z,0.80
2023-01-03T01:52:10.518Z,0.87
2023-01-03T01:54:38.284Z,0.70
2023-01-03T01:57:05.799Z,0.90
2023-01-03T01:59:33.261Z,0.80
2023-01-03T02:02:03.876Z,0.80
2023-01-03T02:04:33.521Z,1.00
2023-01-03T02:07:01.524Z,1.37
2023-01-03T02:09:32.155Z,0.90
2023-01-03T02:12:16.613Z,0.80
2023-01-03T02:14:53.897Z,0.70
2023-01-03T02:17:27.272Z,0.80
2023-01-03T02:20:03.474Z,0.80
2023-01-03T02:22:49.883Z,0.80
2023-01-03T02:25:44.398Z,0.80
2023-01-03T02:28:30.975Z,0.70
2023-01-03T02:31:03.203Z,0.80
2023-01-03T02:33:33.877Z,0.80
2023-01-03T02:36:05.485Z,0.80
2023-01-03T02:38:38.512Z,0.80
2023-01-03T02:41:08.348Z,0.87
2023-01-03T02:43:39.755Z,0.80
2023-01-03T02:46:10.399Z,0.77
2023-01-03T02:48:42.105Z,0.77
2023-01-03T02:51:13.231Z,0.90
2023-01-03T02:53:42.624Z,0.70
2023-01-03T02:56:11.706Z,0.90
2023-01-03T02:58:40.291Z,0.80
2023-01-03T03:01:11.680Z,0.70
2023-01-03T03:03:40.012Z,0.80
2023-01-03T03:06:10.112Z,0.87
2023-01-03T03:08:37.683Z,0.90
2023-01-03T03:11:22.622Z,1.30
2023-01-03T03:13:52.184Z,1.13
2023-01-03T03:16:43.485Z,1.10
2023-01-03T03:19:45.606Z,1.10
2023-01-03T03:22:35.082Z,1.00
2023-01-03T03:25:03.717Z,1.60
2023-01-03T03:27:49.539Z,1.80
2023-01-03T03:30:17.922Z,1.80
2023-01-03T03:32:48.529Z,1.70
2023-01-03T03:35:17.484Z,1.60
2023-01-03T03:37:46.565Z,1.60
2023-01-03T03:40:31.764Z,1.50
2023-01-03T03:43:20.573Z,1.30
2023-01-03T03:45:51.123Z,1.50
2023-01-03T03:48:23.338Z,1.20
2023-01-03T03:50:53.279Z,1.63
2023-01-03T03:53:22.380Z,2.00
2023-01-03T03:55:52.442Z,1.43
2023-01-03T03:58:21.573Z,1.50
2023-01-03T04:00:49.955Z,1.70
2023-01-03T04:03:18.579Z,1.40
2023-01-03T04:05:49.831Z,1.50
2023-01-03T04:08:17.366Z,1.40
2023-01-03T04:10:44.895Z,1.53
2023-01-03T04:13:12.423Z,1.40
2023-01-03T04:15:39.877Z,1.40
2023-01-03T04:18:07.345Z,1.57
2023-01-03T04:20:34.823Z,1.50
2023-01-03T04:23:03.632Z,1.40
2023-01-03T04:25:31.135Z,1.60
2023-01-03T04:27:58.589Z,1.70
2023-01-03T04:30:26.062Z,2.17
2023-01-03T04:32:53.514Z,2.07
2023-01-03T04:35:21.011Z,2.30
2023-01-03T04:37:48.467Z,2.20
2023-01-03T04:40:17.294Z,2.00
2023-01-03T04:43:10.591Z,1.90
2023-01-03T04:45:38.123Z,1.97
2023-01-03T04:48:06.027Z,1.90
2023-01-03T04:50:33.558Z,1.50
2023-01-03T04:53:01.717Z,1.80
2023-01-03T04:55:30.506Z,1.70
2023-01-03T04:57:57.941Z,1.73
2023-01-03T05:00:25.453Z,1.60
2023-01-03T05:02:52.869Z,1.83
2023-01-03T05:05:20.305Z,2.37
2023-01-03T05:07:47.790Z,2.03
2023-01-03T05:10:15.203Z,1.97
2023-01-03T05:12:59.540Z,2.27
2023-01-03T05:15:27.240Z,2.20
2023-01-03T05:17:54.670Z,2.37
2023-01-03T05:20:44.956Z,2.43
2023-01-03T05:23:31.334Z,2.30
2023-01-03T05:25:58.982Z,2.30
2023-01-03T05:28:28.669Z,2.50
2023-01-03T05:30:58.133Z,2.50
2023-01-03T05:33:25.768Z,2.17
2023-01-03T05:35:53.267Z,2.10
2023-01-03T05:38:20.947Z,2.60
2023-01-03T05:40:48.393Z,2.47
2023-01-03T05:43:15.854Z,2.70
2023-01-03T05:45:44.685Z,2.23
2023-01-03T05:48:12.151Z,2.63
2023-01-03T05:50:39.734Z,3.53
2023-01-03T05:53:07.208Z,4.33
2023-01-03T05:55:36.581Z,7.90
2023-01-03T05:58:04.036Z,6.97
2023-01-03T06:00:31.495Z,6.60
2023-01-03T06:03:00.409Z,5.23
2023-01-03T06:05:29.878Z,5.20
2023-01-03T06:07:57.329Z,4.80
2023-01-03T06:10:24.804Z,4.63
2023-01-03T06:12:52.408Z,4.00
2023-01-03T06:15:20.318Z,4.10
2023-01-03T06:17:57.827Z,3.60
2023-01-03T06:20:27.863Z,3.67
2023-01-03T06:22:55.673Z,3.40
2023-01-03T06:25:23.359Z,3.73
2023-01-03T06:27:50.823Z,3.47
2023-01-03T06:30:18.310Z,3.40
2023-01-03T06:32:46.124Z,2.97
2023-01-03T06:35:13.682Z,3.50
2023-01-03T06:37:42.506Z,3.63
2023-01-03T06:40:10.542Z,4.10
2023-01-03T06:42:42.323Z,3.87
2023-01-03T06:45:31.448Z,3.33
2023-01-03T06:48:16.931Z,3.40
2023-01-03T06:51:01.739Z,3.80
2023-01-03T06:53:33.830Z,3.00
2023-01-03T06:56:01.555Z,3.50
2023-01-03T06:58:29.040Z,4.30
2023-01-03T07:00:58.048Z,3.60
2023-01-03T07:03:25.893Z,3.73
2023-01-03T07:05:53.322Z,4.23
2023-01-03T07:08:20.990Z,3.57
2023-01-03T07:10:49.845Z,3.87
2023-01-03T07:13:34.921Z,4.20
2023-01-03T07:16:02.701Z,4.20
2023-01-03T07:18:30.182Z,3.97
2023-01-03T07:20:57.623Z,4.10
2023-01-03T07:23:25.073Z,4.30
2023-01-03T07:25:56.377Z,3.70
2023-01-03T07:28:23.916Z,3.30
2023-01-03T07:30:51.434Z,3.40
2023-01-03T07:33:19.786Z,3.70
2023-01-03T07:35:47.264Z,3.20
2023-01-03T07:38:14.911Z,3.20
2023-01-03T07:40:42.353Z,3.87
2023-01-03T07:43:29.685Z,3.33
2023-01-03T07:45:57.221Z,3.70
2023-01-03T07:48:24.662Z,3.97
2023-01-03T07:50:56.833Z,4.10
2023-01-03T07:53:24.297Z,4.27
2023-01-03T07:55:51.749Z,4.20
2023-01-03T07:58:20.616Z,4.00
2023-01-03T08:00:48.076Z,4.40
2023-01-03T08:03:15.689Z,4.40
2023-01-03T08:05:43.288Z,4.47
2023-01-03T08:08:10.985Z,4.50
2023-01-03T08:10:56.035Z,4.70
2023-01-03T08:13:25.131Z,5.00
2023-01-03T08:15:53.425Z,4.50
2023-01-03T08:18:22.094Z,4.43
2023-01-03T08:20:49.876Z,4.47
2023-01-03T08:23:17.555Z,5.10
2023-01-03T08:25:44.969Z,4.80
2023-01-03T08:28:12.663Z,4.90
2023-01-03T08:30:43.648Z,4.80
2023-01-03T08:33:12.197Z,4.67
2023-01-03T08:35:40.428Z,4.83
2023-01-03T08:38:10.579Z,5.30
2023-01-03T08:40:42.115Z,5.77
2023-01-03T08:43:10.957Z,5.17
2023-01-03T08:45:39.216Z,6.00
2023-01-03T08:48:09.871Z,5.90
2023-01-03T08:50:37.502Z,5.90
2023-01-03T08:53:05.823Z,5.40
2023-01-03T08:55:33.413Z,5.57
2023-01-03T08:58:01.158Z,4.73
2023-01-03T09:00:29.112Z,5.87
2023-01-03T09:03:00.047Z,5.80
2023-01-03T09:05:29.605Z,6.30
2023-01-03T09:07:58.247Z,5.90
2023-01-03T09:10:25.754Z,6.20
2023-01-03T09:12:53.217Z,6.10
2023-01-03T09:15:20.743Z,6.10
2023-01-03T09:17:49.362Z,5.10
2023-01-03T09:20:17.926Z,5.20
2023-01-03T09:22:47.986Z,4.77
2023-01-03T09:25:15.996Z,5.27
2023-01-03T09:27:45.643Z,5.07
2023-01-03T09:30:13.709Z,5.60
2023-01-03T09:32:41.378Z,5.40
2023-01-03T09:35:09.671Z,5.10
2023-01-03T09:37:37.171Z,4.57
2023-01-03T09:40:06.423Z,5.63
2023-01-03T09:42:53.639Z,6.10
2023-01-03T09:45:24.983Z,6.03
2023-01-03T09:47:52.408Z,6.07
2023-01-03T09:50:39.281Z,5.70
2023-01-03T09:53:31.661Z,5.23
2023-01-03T09:56:19.186Z,5.20
2023-01-03T09:59:07.644Z,4.50
2023-01-03T10:02:05.763Z,4.40
2023-01-03T10:04:41.058Z,4.53
2023-01-03T10:07:13.636Z,4.40
2023-01-03T10:09:45.841Z,4.60
2023-01-03T10:12:17.957Z,4.70
2023-01-03T10:14:51.464Z,4.20
2023-01-03T10:17:23.736Z,4.97
2023-01-03T10:19:57.798Z,4.60
2023-01-03T10:22:26.950Z,4.67
2023-01-03T10:24:57.180Z,4.87
2023-01-03T10:27:27.755Z,4.90
2023-01-03T10:29:56.583Z,5.40
2023-01-03T10:32:31.858Z,6.30
2023-01-03T10:35:03.206Z,6.17
2023-01-03T10:37:30.718Z,6.30
2023-01-03T10:40:02.637Z,6.10
2023-01-03T10:42:33.717Z,6.23
2023-01-03T10:45:01.979Z,5.50
2023-01-03T10:47:29.884Z,5.77
2023-01-03T10:50:00.908Z,5.13
2023-01-03T10:52:31.380Z,5.37
2023-01-03T10:55:02.415Z,4.97
2023-01-03T10:57:43.730Z,4.90
2023-01-03T11:00:22.376Z,4.63
2023-01-03T11:02:50.280Z,4.70
2023-01-03T11:05:19.604Z,4.80
2023-01-03T11:07:51.558Z,4.43
2023-01-03T11:10:19.690Z,5.00
2023-01-03T11:12:48.655Z,5.07
2023-01-03T11:15:16.969Z,4.50
2023-01-03T11:17:53.701Z,4.50
2023-01-03T11:20:21.358Z,4.17
2023-01-03T11:22:51.720Z,4.40
2023-01-03T11:25:34.083Z,4.63
2023-01-03T11:28:15.421Z,4.33
2023-01-03T11:30:49.334Z,4.03
2023-01-03T11:33:29.293Z,4.40
2023-01-03T11:36:09.023Z,4.10
2023-01-03T11:38:44.742Z,4.63
2023-01-03T11:41:18.107Z,4.63
2023-01-03T11:43:53.784Z,4.40
2023-01-03T11:46:31.078Z,4.50
2023-01-03T11:49:08.113Z,4.53
2023-01-03T11:51:37.215Z,4.50
2023-01-03T11:54:09.976Z,4.80
2023-01-03T11:56:39.103Z,4.53
2023-01-03T11:59:24.938Z,4.80
2023-01-03T12:02:01.701Z,4.87
2023-01-03T12:04:30.282Z,4.77
2023-01-03T12:07:45.152Z,5.40
2023-01-03T12:09:56.956Z,5.40
2023-01-03T12:12:29.547Z,5.77
2023-01-03T12:15:00.561Z,4.90
2023-01-03T12:17:33.067Z,4.33
2023-01-03T12:20:02.326Z,4.70
2023-01-03T12:22:34.239Z,4.07
2023-01-03T12:25:07.892Z,4.30
2023-01-03T12:27:36.582Z,4.70
2023-01-03T12:30:06.680Z,4.73
2023-01-03T12:32:43.649Z,5.13
2023-01-03T12:35:23.913Z,5.00
2023-01-03T12:37:52.020Z,4.50
2023-01-03T12:40:24.707Z,5.03
2023-01-03T12:42:57.958Z,5.10
2023-01-03T12:45:39.028Z,5.37
2023-01-03T12:48:13.355Z,4.80
2023-01-03T12:50:43.850Z,4.63
2023-01-03T12:53:14.360Z,5.00
2023-01-03T12:55:47.944Z,4.60
2023-01-03T12:58:19.533Z,4.57
2023-01-03T13:00:56.724Z,4.90
2023-01-03T13:03:28.369Z,4.80
2023-01-03T13:05:58.452Z,5.20
2023-01-03T13:08:37.001Z,5.43
2023-01-03T13:11:05.713Z,6.13
2023-01-03T13:13:33.824Z,5.40
2023-01-03T13:16:01.534Z,14.20
2023-01-03T13:18:35.390Z,8.17
2023-01-03T13:21:22.854Z,5.70
2023-01-03T13:24:00.231Z,5.73
2023-01-03T13:26:28.299Z,5.33
2023-01-03T13:29:10.663Z,4.97
2023-01-03T13:31:39.554Z,5.10
2023-01-03T13:34:17.415Z,4.50
2023-01-03T13:37:09.840Z,5.03
2023-01-03T13:39:40.581Z,5.00
2023-01-03T13:42:20.068Z,5.20
2023-01-03T13:44:47.549Z,5.63
2023-01-03T13:47:23.601Z,5.53
2023-01-03T13:49:54.180Z,5.03
2023-01-03T13:52:36.021Z,4.90
2023-01-03T13:55:04.195Z,5.20
2023-01-03T13:57:35.623Z,5.10
2023-01-03T14:00:04.527Z,4.33
2023-01-03T14:02:58.359Z,4.40
2023-01-03T14:05:43.885Z,4.50
2023-01-03T14:08:23.712Z,4.50
2023-01-03T14:11:05.385Z,4.67
2023-01-03T14:13:39.942Z,5.00
2023-01-03T14:16:19.927Z,4.80
2023-01-03T14:18:48.745Z,5.43
2023-01-03T14:21:25.653Z,4.90
2023-01-03T14:24:00.833Z,4.33
2023-01-03T14:26:29.312Z,4.13
2023-01-03T14:28:56.913Z,4.30
2023-01-03T14:31:26.665Z,3.80
2023-01-03T14:33:55.907Z,4.10
2023-01-03T14:36:25.012Z,4.10
2023-01-03T14:38:53.594Z,4.40
2023-01-03T14:41:26.732Z,4.50
2023-01-03T14:43:59.325Z,3.93
2023-01-03T14:46:27.996Z,4.13
2023-01-03T14:49:02.681Z,4.23
2023-01-03T14:51:32.827Z,4.10
2023-01-03T14:54:00.437Z,4.40
2023-01-03T14:56:29.337Z,4.70
2023-01-03T14:58:58.059Z,4.87
2023-01-03T15:01:27.023Z,4.90
2023-01-03T15:03:55.085Z,4.73
2023-01-03T15:06:23.929Z,5.40
2023-01-03T15:08:53.904Z,5.43
2023-01-03T15:11:23.464Z,4.67
2023-01-03T15:13:54.023Z,5.23
2023-01-03T15:16:24.490Z,4.83
2023-01-03T15:18:52.071Z,5.10
2023-01-03T15:21:21.760Z,5.00
2023-01-03T15:23:50.065Z,4.50
2023-01-03T15:26:23.108Z,4.73
2023-01-03T15:28:51.782Z,4.87
2023-01-03T15:31:26.613Z,5.50
2023-01-03T15:34:00.809Z,5.00
2023-01-03T15:36:29.696Z,5.67
2023-01-03T15:38:57.219Z,5.93
2023-01-03T15:41:46.350Z,6.23
2023-01-03T15:44:14.923Z,6.20
2023-01-03T15:46:44.879Z,6.53
2023-01-03T15:49:13.412Z,5.60
2023-01-03T15:51:40.865Z,6.87
2023-01-03T15:54:11.648Z,6.17
2023-01-03T15:56:45.271Z,6.43
2023-01-03T15:59:13.319Z,6.17
2023-01-03T16:01:40.882Z,6.07
2023-01-03T16:04:08.384Z,6.10
2023-01-03T16:06:36.343Z,5.93
2023-01-03T16:09:03.793Z,6.30
2023-01-03T16:11:34.442Z,6.30
2023-01-03T16:14:04.705Z,5.73
2023-01-03T16:16:34.648Z,6.53
2023-01-03T16:19:03.958Z,6.43
2023-01-03T16:21:31.872Z,6.50
2023-01-03T16:23:59.406Z,6.50
2023-01-03T16:26:26.930Z,6.87
2023-01-03T16:28:54.428Z,6.67
2023-01-03T16:31:25.933Z,6.20
2023-01-03T16:33:53.501Z,6.23
2023-01-03T16:36:26.782Z,6.23
2023-01-03T16:38:54.269Z,6.83
2023-01-03T16:41:21.694Z,6.43
2023-01-03T16:43:49.135Z,8.00
2023-01-03T16:46:18.630Z,7.70
2023-01-03T16:48:47.878Z,7.60
2023-01-03T16:51:18.425Z,7.03
2023-01-03T16:53:47.497Z,7.20
2023-01-03T16:56:15.167Z,7.37
2023-01-03T16:58:42.699Z,7.13
2023-01-03T17:01:10.355Z,7.10
2023-01-03T17:03:41.706Z,7.00
2023-01-03T17:06:18.079Z,7.07
2023-01-03T17:08:45.549Z,6.63
2023-01-03T17:11:13.023Z,6.97
2023-01-03T17:13:41.638Z,7.23
2023-01-03T17:16:13.262Z,6.70
2023-01-03T17:18:42.855Z,6.70
2023-01-03T17:21:12.861Z,7.33
2023-01-03T17:23:41.899Z,7.77
2023-01-03T17:26:11.674Z,7.93
2023-01-03T17:28:39.141Z,7.70
2023-01-03T17:31:06.699Z,8.57
2023-01-03T17:33:34.624Z,8.70
2023-01-03T17:36:02.243Z,8.50
2023-01-03T17:38:30.652Z,8.13
2023-01-03T17:40:59.511Z,8.10
2023-01-03T17:43:27.604Z,8.27
2023-01-03T17:46:20.587Z,9.47
2023-01-03T17:49:07.817Z,8.47
2023-01-03T17:51:35.292Z,8.50
2023-01-03T17:54:02.708Z,8.13
2023-01-03T17:56:31.551Z,8.30
2023-01-03T17:58:59.026Z,8.70
2023-01-03T18:01:26.566Z,9.20
2023-01-03T18:03:54.144Z,9.40
2023-01-03T18:06:23.782Z,8.90
2023-01-03T18:08:52.350Z,8.97
2023-01-03T18:11:20.326Z,9.63
2023-01-03T18:13:49.629Z,9.97
2023-01-03T18:16:19.449Z,9.70
2023-01-03T18:18:47.433Z,9.53
2023-01-03T18:21:21.286Z,8.87
2023-01-03T18:23:51.235Z,9.10
2023-01-03T18:26:18.914Z,10.63
2023-01-03T18:28:46.445Z,10.47
2023-01-03T18:31:16.885Z,9.80
2023-01-03T18:33:44.443Z,9.37
2023-01-03T18:36:22.212Z,8.70
2023-01-03T18:38:49.736Z,8.87
2023-01-03T18:41:19.104Z,9.23
2023-01-03T18:43:46.533Z,9.60
2023-01-03T18:46:16.554Z,10.47
2023-01-03T18:48:44.157Z,10.00
2023-01-03T18:51:14.724Z,9.70
2023-01-03T18:53:43.058Z,9.30
2023-01-03T18:56:19.403Z,8.73
2023-01-03T18:58:46.902Z,10.20
2023-01-03T19:01:15.725Z,10.80
2023-01-03T19:03:44.361Z,10.30
2023-01-03T19:06:16.851Z,9.33
2023-01-03T19:08:44.525Z,9.93
2023-01-03T19:11:14.652Z,9.37
2023-01-03T19:13:51.745Z,10.67
2023-01-03T19:16:21.954Z,11.63
2023-01-03T19:18:49.655Z,13.43
2023-01-03T19:21:17.803Z,12.70
2023-01-03T19:23:45.935Z,14.10
2023-01-03T19:26:25.244Z,13.27
2023-01-03T19:28:56.198Z,12.83
2023-01-03T19:31:25.943Z,11.90
2023-01-03T19:33:53.617Z,14.17
2023-01-03T19:36:22.178Z,15.43
2023-01-03T19:38:50.068Z,15.93
2023-01-03T19:41:18.867Z,13.63
2023-01-03T19:43:47.003Z,12.73
2023-01-03T19:46:15.548Z,12.67
2023-01-03T19:48:44.867Z,13.17
2023-01-03T19:51:13.306Z,12.03
2023-01-03T19:53:42.358Z,11.53
2023-01-03T19:56:20.005Z,11.00
2023-01-03T19:58:47.610Z,11.43
2023-01-03T20:01:15.893Z,11.53
2023-01-03T20:03:45.042Z,11.67
2023-01-03T20:06:13.626Z,11.20
2023-01-03T20:08:41.252Z,9.90
2023-01-03T20:11:12.657Z,9.70
2023-01-03T20:13:40.118Z,9.93
2023-01-03T20:16:07.846Z,12.00
2023-01-03T20:18:36.872Z,10.90
2023-01-03T20:21:08.026Z,12.73
2023-01-03T20:23:37.321Z,11.87
2023-01-03T20:26:05.158Z,12.07
2023-01-03T20:28:32.732Z,12.37
2023-01-03T20:31:01.553Z,12.20
2023-01-03T20:33:29.095Z,13.07
2023-01-03T20:36:22.169Z,11.87
2023-01-03T20:38:49.100Z,12.93
2023-01-03T20:41:17.506Z,13.30
2023-01-03T20:43:45.476Z,13.60
2023-01-03T20:46:17.482Z,11.77
2023-01-03T20:48:45.342Z,11.10
2023-01-03T20:51:13.757Z,10.80
2023-01-03T20:53:43.070Z,11.50
2023-01-03T20:56:13.745Z,10.63
2023-01-03T20:58:41.238Z,11.87
2023-01-03T21:01:08.926Z,11.57
2023-01-03T21:03:37.647Z,12.07
2023-01-03T21:06:12.551Z,12.03
2023-01-03T21:08:55.026Z,11.17
2023-01-03T21:11:24.343Z,11.87
2023-01-03T21:13:52.028Z,12.50
2023-01-03T21:16:29.981Z,11.17
2023-01-03T21:18:57.537Z,11.20
2023-01-03T21:21:25.180Z,11.53
2023-01-03T21:23:54.187Z,11.03
2023-01-03T21:26:22.204Z,12.37
2023-01-03T21:28:51.023Z,11.60
2023-01-03T21:31:19.583Z,12.37
2023-01-03T21:33:47.259Z,11.67
2023-01-03T21:36:21.045Z,11.43
2023-01-03T21:38:50.638Z,10.07
2023-01-03T21:41:18.586Z,12.90
2023-01-03T21:43:46.054Z,12.20
2023-01-03T21:46:17.956Z,12.10
2023-01-03T21:48:45.571Z,13.03
2023-01-03T21:51:13.683Z,13.23
2023-01-03T21:53:41.519Z,13.23
2023-01-03T21:56:09.317Z,12.97
2023-01-03T21:58:37.053Z,12.37
2023-01-03T22:01:11.477Z,12.50
2023-01-03T22:04:09.606Z,12.57
2023-01-03T22:06:37.277Z,12.83
2023-01-03T22:09:06.092Z,13.13
2023-01-03T22:11:33.601Z,13.60
2023-01-03T22:14:01.469Z,14.33
2023-01-03T22:16:29.016Z,14.47
2023-01-03T22:18:59.672Z,14.30
2023-01-03T22:21:27.132Z,14.13
2023-01-03T22:23:55.283Z,13.43
2023-01-03T22:26:22.737Z,14.70
2023-01-03T22:28:50.156Z,14.37
2023-01-03T22:31:18.649Z,14.10
2023-01-03T22:33:46.516Z,13.50
2023-01-03T22:36:15.768Z,11.97
2023-01-03T22:38:44.037Z,12.03
2023-01-03T22:41:12.440Z,11.70
2023-01-03T22:43:40.218Z,10.87
2023-01-03T22:46:08.237Z,11.70
2023-01-03T22:48:35.762Z,12.23
2023-01-03T22:51:04.259Z,11.70
2023-01-03T22:53:33.599Z,13.07
2023-01-03T22:56:01.074Z,12.47
2023-01-03T22:58:28.503Z,12.30
2023-01-03T23:00:56.030Z,12.80
2023-01-03T23:03:23.505Z,11.30
2023-01-03T23:05:50.967Z,13.27
2023-01-03T23:08:18.426Z,11.63
2023-01-03T23:10:47.258Z,11.87
2023-01-03T23:13:13.755Z,12.40
2023-01-03T23:15:41.225Z,12.90
2023-01-03T23:18:08.654Z,11.67
2023-01-03T23:20:36.322Z,12.87
2023-01-03T23:23:04.503Z,14.07
2023-01-03T23:25:33.091Z,13.13
2023-01-03T23:28:01.915Z,13.03
2023-01-03T23:30:29.448Z,12.67
2023-01-03T23:32:56.907Z,13.90
2023-01-03T23:35:24.323Z,14.07
2023-01-03T23:37:51.743Z,14.50
2023-01-03T23:40:19.159Z,14.63
2023-01-03T23:42:46.581Z,13.43
2023-01-03T23:45:15.393Z,14.00
2023-01-03T23:47:42.833Z,13.53
2023-01-03T23:50:10.457Z,14.80
2023-01-03T23:52:37.935Z,13.80
2023-01-03T23:55:12.213Z,13.77
2023-01-03T23:57:40.388Z,13.50
